Pagrindinis puslapis
METAR-TAF:

METAR-TAF

Oro uostai :

Helsinkis, Suomija

platuma: 60-19N, ilguma: 024-58E, Aukštis: 51 m

Dabartinis oras

Ataskaita buvo paskelbta 29 minutes, ne 07:50 UTC
Vėjas 7 kt iš Vakarų, svyruoja nuo Pietvakarių ir Šiaurės Vakarų
Temperatūra 17°C
Drėgmė 72%
Slėgis 1013 hPa
Matomumas 10 km arba daugiau
Mažai debesys ne aukštis 2300 ft

METAR: EFHK 050750Z 28007KT 230V310 9999 FEW023 17/12 Q1013 NOSIG

Laikas: 11:19 (08:19 UTC)

Prognozė

Ataskaita buvo paskelbta 2 valandos ir 52 minutes, ne 05:27 UTC
Prognozė galioja nuo 05 metu 06 UTC su 06 metu 06 UTC
Vėjas 5 kt iš Vakarų/Šiaurės Vakarų
Matomumas 10 km arba daugiau
nėra debesų žemiau 1500 m ir nėra kamuolinių lietaus debesų
Tapsmas
nuo 05 metu 11 UTC su 05 metu 13 UTC
Vėjas 11 kt iš Pietvakarių
Laikinai
nuo 05 metu 12 UTC su 05 metu 15 UTC
Mažai debesys ne aukštis 4000 ft, aukštai iškilę kamuoliniai debesys.

TAF: EFHK 050527Z 0506/0606 29005KT CAVOK BECMG 0511/0513 22011KT TEMPO 0512/0515 FEW040TCU

Orai ataskaitas ir orų prognozės (METAR, TAF).

turimą stotys yra geltonos ir raudonos taškus žemėlapyje.

Perkelti pele per norėdami pamatyti stoties vardą.

Tada spustelėkite, norėdami matyti oro stebėjimo ir prognozės.

Norėdami pakeisti žemėlapį: spustelėkite ant žalios mygtukų su juodo kryžiaus žemyn,; žalią mygtuką su brūkšneliu, jei norite nutolinti; arba žalių rodyklių gretimoms žemėlapius.


METAR-TAF: